Time;durP1;ratioP1;P1;durP2;ratioP2;P2;SDS_P1;SDS_P2;PMS_P1;PMS_P2;Temp;Humidity;BMP_temperature;BMP_pressure;BME280_temperature;BME280_humidity;BME280_pressure;Samples;Min_cycle;Max_cycle;Signal;HPM_P1;HPM_P2
2023/03/25 00:00:58;;;;;;;2.33;0.90;;;9.80;99.90;;;;;;5077786;28;20024;-67
2023/03/25 00:03:32;;;;;;;1.42;0.93;;;9.80;99.90;;;;;;5078516;28;20477;-67
2023/03/25 00:05:59;;;;;;;1.35;0.88;;;9.80;99.90;;;;;;5075492;28;20495;-67
2023/03/25 00:08:25;;;;;;;5.05;1.10;;;9.80;99.90;;;;;;5078349;28;20032;-67
2023/03/25 00:10:57;;;;;;;1.38;0.70;;;9.70;99.90;;;;;;5079995;28;20032;-67
2023/03/25 00:13:23;;;;;;;2.72;1.05;;;9.80;99.90;;;;;;5076018;28;20028;-67
2023/03/25 00:15:52;;;;;;;1.52;0.70;;;9.90;99.90;;;;;;5083214;28;20105;-66
2023/03/25 00:18:19;;;;;;;2.53;1.00;;;9.70;99.90;;;;;;5079455;28;20032;-67
2023/03/25 00:20:48;;;;;;;1.33;0.85;;;9.70;99.90;;;;;;5077604;28;20032;-67
2023/03/25 00:23:19;;;;;;;1.10;0.70;;;9.70;99.90;;;;;;5073767;28;20044;-67
2023/03/25 00:25:45;;;;;;;2.20;0.90;;;9.80;99.90;;;;;;5078925;28;20028;-67
2023/03/25 00:28:12;;;;;;;4.32;1.17;;;9.80;99.90;;;;;;5077748;28;20036;-66
2023/03/25 00:30:39;;;;;;;3.58;0.90;;;9.90;99.90;;;;;;5076691;28;20028;-67
2023/03/25 00:33:05;;;;;;;4.22;0.80;;;9.80;99.90;;;;;;5077353;28;20044;-67
2023/03/25 00:35:31;;;;;;;2.83;1.35;;;9.80;99.90;;;;;;5059075;28;20431;-67
2023/03/25 00:38:01;;;;;;;4.15;0.80;;;9.70;99.90;;;;;;5060769;28;20058;-67
2023/03/25 00:40:34;;;;;;;1.58;0.75;;;9.70;99.90;;;;;;5079635;28;20043;-67
2023/03/25 00:43:02;;;;;;;5.22;1.58;;;9.70;99.90;;;;;;5061700;28;20032;-68
2023/03/25 00:45:28;;;;;;;3.45;1.00;;;9.80;99.90;;;;;;5075765;28;20028;-67
2023/03/25 00:47:55;;;;;;;3.83;1.60;;;9.80;99.90;;;;;;5080370;28;20680;-66
2023/03/25 00:50:22;;;;;;;1.25;0.90;;;9.80;99.90;;;;;;5081022;28;20028;-67
2023/03/25 00:52:48;;;;;;;3.03;0.80;;;9.90;99.90;;;;;;5078398;28;20029;-67
2023/03/25 00:55:14;;;;;;;0.50;0.50;;;9.80;99.90;;;;;;5082106;28;20059;-67
2023/03/25 00:57:40;;;;;;;3.67;0.88;;;9.70;99.90;;;;;;5080251;28;20121;-67
2023/03/25 01:00:09;;;;;;;1.55;0.80;;;9.70;99.90;;;;;;5080838;28;20114;-67
2023/03/25 01:02:35;;;;;;;2.28;0.93;;;9.60;99.90;;;;;;5062711;28;20500;-67
2023/03/25 01:05:01;;;;;;;1.95;0.70;;;9.60;99.90;;;;;;5082932;28;20663;-67
2023/03/25 01:07:30;;;;;;;1.77;0.82;;;9.60;99.90;;;;;;5084801;28;20024;-67
2023/03/25 01:09:57;;;;;;;1.48;0.70;;;9.70;99.90;;;;;;5087771;28;20028;-67
2023/03/25 01:12:25;;;;;;;1.55;0.75;;;9.70;99.90;;;;;;5060642;28;20028;-67
2023/03/25 01:14:52;;;;;;;1.42;1.00;;;9.80;99.90;;;;;;5070026;28;20032;-67
2023/03/25 01:17:18;;;;;;;1.67;0.68;;;9.90;99.90;;;;;;5081841;28;20081;-67
2023/03/25 01:19:44;;;;;;;3.35;1.00;;;9.90;99.90;;;;;;5076269;28;20036;-67
2023/03/25 01:22:10;;;;;;;4.00;0.70;;;9.90;99.90;;;;;;5079809;28;20694;-67
2023/03/25 01:24:36;;;;;;;0.80;0.70;;;9.90;99.90;;;;;;5066815;28;20036;-67
2023/03/25 01:27:03;;;;;;;1.67;0.60;;;9.90;99.90;;;;;;5080336;28;20016;-67
2023/03/25 01:29:29;;;;;;;3.17;0.75;;;9.90;99.90;;;;;;5064409;28;20020;-67
2023/03/25 01:31:57;;;;;;;3.20;0.75;;;9.90;99.90;;;;;;5064801;28;20028;-67
2023/03/25 01:34:23;;;;;;;4.28;0.65;;;9.90;99.90;;;;;;5083491;28;20027;-67
2023/03/25 01:36:49;;;;;;;1.35;0.90;;;9.90;99.90;;;;;;5078400;28;20032;-67
2023/03/25 01:39:17;;;;;;;1.15;0.70;;;9.80;99.90;;;;;;5067297;28;20163;-67
2023/03/25 01:41:46;;;;;;;1.15;0.60;;;9.80;99.90;;;;;;5081015;28;20488;-67
2023/03/25 01:44:20;;;;;;;5.35;0.80;;;9.80;99.90;;;;;;5081991;28;20123;-67
2023/03/25 01:46:48;;;;;;;2.83;1.00;;;9.80;99.90;;;;;;5081567;28;20095;-67
2023/03/25 01:49:39;;;;;;;1.73;0.60;;;9.70;99.90;;;;;;5080942;28;20103;-66
2023/03/25 01:52:11;;;;;;;4.45;0.88;;;9.70;99.90;;;;;;5073773;28;20077;-67
2023/03/25 01:54:37;;;;;;;4.43;0.90;;;9.70;99.90;;;;;;5081578;28;20054;-67
2023/03/25 01:57:05;;;;;;;2.05;0.70;;;9.70;99.90;;;;;;5068094;28;20058;-67
2023/03/25 01:59:31;;;;;;;5.13;0.98;;;9.60;99.90;;;;;;5068291;28;20020;-67
2023/03/25 02:02:01;;;;;;;2.80;1.00;;;9.70;99.90;;;;;;5081604;28;20052;-67
2023/03/25 02:04:50;;;;;;;1.15;0.63;;;9.60;99.90;;;;;;5076157;28;20032;-66
2023/03/25 02:07:17;;;;;;;2.08;0.90;;;9.80;99.90;;;;;;5061194;28;20387;-67
2023/03/25 02:09:43;;;;;;;3.58;1.25;;;9.80;99.90;;;;;;5074781;28;20077;-67
2023/03/25 02:12:09;;;;;;;2.70;0.80;;;9.90;99.90;;;;;;5078185;28;20080;-67
2023/03/25 02:14:36;;;;;;;5.22;1.60;;;10.00;99.90;;;;;;5079115;28;20256;-67
2023/03/25 02:17:02;;;;;;;2.03;1.13;;;10.10;99.90;;;;;;5079115;28;20528;-66
2023/03/25 02:19:46;;;;;;;3.35;1.15;;;10.10;99.90;;;;;;5067326;28;20036;-67
2023/03/25 02:22:24;;;;;;;2.10;1.30;;;10.10;99.90;;;;;;5061361;28;20070;-67
2023/03/25 02:25:00;;;;;;;3.90;1.17;;;10.20;99.90;;;;;;5073950;28;20060;-67
2023/03/25 02:27:44;;;;;;;2.55;1.00;;;10.20;99.90;;;;;;5077196;28;20023;-67
2023/03/25 02:30:16;;;;;;;1.83;0.82;;;10.20;99.90;;;;;;5066976;28;20031;-67
2023/03/25 02:33:15;;;;;;;2.58;1.38;;;10.20;99.90;;;;;;5060192;28;20031;-67
2023/03/25 02:35:40;;;;;;;2.38;1.27;;;10.10;99.90;;;;;;5083061;28;20035;-67
2023/03/25 02:38:26;;;;;;;1.38;1.00;;;10.10;99.90;;;;;;5060290;28;20819;-67
2023/03/25 02:41:02;;;;;;;5.60;1.10;;;10.00;99.90;;;;;;5058586;28;20654;-67
2023/03/25 02:43:41;;;;;;;2.63;1.10;;;9.90;99.90;;;;;;5058250;28;20121;-67
2023/03/25 02:46:13;;;;;;;1.95;1.13;;;9.90;99.90;;;;;;5058277;28;20027;-67
2023/03/25 02:49:00;;;;;;;2.25;1.00;;;9.90;99.90;;;;;;5065861;28;20502;-67
2023/03/25 02:51:33;;;;;;;1.10;0.85;;;10.00;99.90;;;;;;5076448;28;20547;-66
2023/03/25 02:54:11;;;;;;;2.00;1.27;;;9.90;99.90;;;;;;5058686;28;20407;-67
2023/03/25 02:56:40;;;;;;;5.20;1.38;;;10.10;99.90;;;;;;5076455;28;20024;-67
2023/03/25 02:59:07;;;;;;;1.95;0.82;;;10.20;99.90;;;;;;5077941;28;20032;-67
2023/03/25 03:01:35;;;;;;;2.05;0.88;;;10.20;99.90;;;;;;5077936;28;20056;-67
2023/03/25 03:04:01;;;;;;;3.22;1.10;;;10.10;99.90;;;;;;5062987;28;20029;-67
2023/03/25 03:06:27;;;;;;;2.47;1.02;;;10.10;99.90;;;;;;5062312;28;20020;-67
2023/03/25 03:08:57;;;;;;;2.67;1.30;;;9.90;99.90;;;;;;5075876;28;20484;-66
2023/03/25 03:11:32;;;;;;;4.60;1.20;;;9.90;99.90;;;;;;5060732;28;20067;-66
2023/03/25 03:14:16;;;;;;;4.40;1.20;;;9.80;99.90;;;;;;5081947;28;20500;-67
2023/03/25 03:16:48;;;;;;;2.83;1.17;;;9.80;99.90;;;;;;5062902;28;20031;-67
2023/03/25 03:19:33;;;;;;;3.00;1.00;;;9.90;99.90;;;;;;5079673;28;20032;-67
2023/03/25 03:22:13;;;;;;;3.10;1.05;;;9.70;99.90;;;;;;5079170;28;20027;-67
2023/03/25 03:24:47;;;;;;;3.40;0.90;;;9.70;99.90;;;;;;5077701;28;20032;-67
2023/03/25 03:27:37;;;;;;;5.10;1.30;;;9.70;99.90;;;;;;5080391;28;20887;-67
2023/03/25 03:30:31;;;;;;;1.92;1.10;;;9.70;99.90;;;;;;5062275;28;20055;-67
2023/03/25 03:33:27;;;;;;;2.13;0.98;;;9.70;99.90;;;;;;5056882;28;20028;-67
2023/03/25 03:36:00;;;;;;;3.85;1.20;;;9.80;99.90;;;;;;5083464;28;20119;-67
2023/03/25 03:38:34;;;;;;;3.10;0.85;;;9.90;99.90;;;;;;5075494;28;20043;-67
2023/03/25 03:41:05;;;;;;;4.10;1.30;;;10.00;99.90;;;;;;5082554;28;20039;-67
2023/03/25 03:43:44;;;;;;;1.60;1.10;;;9.90;99.90;;;;;;5076600;28;20472;-67
2023/03/25 03:46:21;;;;;;;4.35;1.27;;;9.90;99.90;;;;;;5078050;28;20024;-67
2023/03/25 03:48:54;;;;;;;3.38;1.30;;;10.00;99.90;;;;;;5071470;28;20024;-67
2023/03/25 03:51:30;;;;;;;4.40;1.30;;;10.00;99.90;;;;;;5079657;28;20335;-67
2023/03/25 03:54:01;;;;;;;3.33;1.00;;;9.90;99.90;;;;;;5073134;28;20028;-67
2023/03/25 03:56:35;;;;;;;5.97;1.10;;;9.90;99.90;;;;;;5075626;28;20046;-67
2023/03/25 03:59:09;;;;;;;3.63;0.85;;;9.90;99.90;;;;;;5076813;28;20059;-67
2023/03/25 04:01:44;;;;;;;5.53;2.22;;;9.90;99.90;;;;;;5079378;28;20050;-67
2023/03/25 04:04:17;;;;;;;2.47;1.00;;;9.70;99.90;;;;;;5076137;28;20036;-67
2023/03/25 04:07:03;;;;;;;2.72;1.00;;;9.70;99.90;;;;;;5078001;28;20021;-67
2023/03/25 04:09:53;;;;;;;1.25;0.75;;;9.70;99.90;;;;;;5075409;28;20028;-67
2023/03/25 04:12:52;;;;;;;4.50;0.80;;;9.70;99.90;;;;;;5063315;28;20051;-67
2023/03/25 04:15:18;;;;;;;3.47;0.90;;;9.80;99.90;;;;;;5061316;28;20754;-67
2023/03/25 04:17:44;;;;;;;4.57;1.13;;;9.80;99.90;;;;;;5079736;28;20067;-67
2023/03/25 04:20:13;;;;;;;2.33;0.80;;;9.70;99.90;;;;;;5071983;28;20067;-67
2023/03/25 04:22:44;;;;;;;5.53;1.08;;;9.70;99.90;;;;;;5085272;28;20040;-67
2023/03/25 04:25:10;;;;;;;2.17;1.13;;;9.70;99.90;;;;;;5077034;28;20078;-67
2023/03/25 04:27:37;;;;;;;6.20;1.00;;;9.60;99.90;;;;;;5080553;28;20559;-67
2023/03/25 04:30:05;;;;;;;3.55;1.33;;;9.50;99.90;;;;;;5075521;28;20107;-67
2023/03/25 04:32:30;;;;;;;3.33;0.93;;;9.40;99.90;;;;;;5083512;28;20028;-67
2023/03/25 04:34:56;;;;;;;4.10;0.90;;;9.40;99.90;;;;;;5080555;28;20209;-67
2023/03/25 04:37:26;;;;;;;2.42;0.90;;;9.30;99.90;;;;;;5073857;28;20029;-67
2023/03/25 04:39:54;;;;;;;2.47;0.93;;;9.20;99.90;;;;;;5077218;28;20123;-67
2023/03/25 04:42:24;;;;;;;3.60;1.00;;;9.20;99.90;;;;;;5087927;28;20081;-67
2023/03/25 04:44:53;;;;;;;2.13;0.90;;;9.20;99.90;;;;;;5060958;28;20475;-67
2023/03/25 04:47:23;;;;;;;1.17;0.73;;;9.30;99.90;;;;;;5077632;28;20724;-67
2023/03/25 04:49:49;;;;;;;4.25;1.02;;;9.30;99.90;;;;;;5081988;28;20031;-67
2023/03/25 04:52:16;;;;;;;4.07;1.30;;;9.30;99.90;;;;;;5078100;28;20068;-67
2023/03/25 04:54:43;;;;;;;2.78;0.90;;;9.30;99.90;;;;;;5081565;28;20032;-67
2023/03/25 04:57:09;;;;;;;2.42;0.85;;;9.20;99.90;;;;;;5089004;28;20036;-66
2023/03/25 04:59:35;;;;;;;2.30;0.77;;;9.20;99.90;;;;;;5081394;28;20096;-67
2023/03/25 05:02:02;;;;;;;5.88;1.30;;;9.30;99.90;;;;;;5077983;28;20032;-67
2023/03/25 05:04:28;;;;;;;3.45;0.95;;;9.30;99.90;;;;;;5082515;28;20040;-67
2023/03/25 05:06:55;;;;;;;4.10;1.00;;;9.30;99.90;;;;;;5082685;28;20405;-67
2023/03/25 05:09:21;;;;;;;3.58;1.67;;;9.30;99.90;;;;;;5086318;28;20113;-66
2023/03/25 05:11:48;;;;;;;2.13;0.85;;;9.30;99.90;;;;;;5083074;28;20020;-67
2023/03/25 05:14:16;;;;;;;1.20;0.75;;;9.40;99.90;;;;;;5086987;28;20044;-67
2023/03/25 05:16:43;;;;;;;1.45;0.70;;;9.50;99.90;;;;;;5077780;28;20029;-67
2023/03/25 05:19:09;;;;;;;2.03;0.70;;;9.60;99.90;;;;;;5082317;28;20032;-67
2023/03/25 05:21:36;;;;;;;2.92;0.93;;;9.70;99.90;;;;;;5080272;28;20033;-67
2023/03/25 05:24:03;;;;;;;2.40;1.13;;;9.60;99.90;;;;;;5080510;28;20393;-67
2023/03/25 05:26:33;;;;;;;5.45;0.90;;;9.70;99.90;;;;;;5083203;28;20032;-67
2023/03/25 05:29:12;;;;;;;1.15;0.60;;;9.80;99.90;;;;;;5086953;28;20024;-67
2023/03/25 05:31:41;;;;;;;2.15;0.90;;;9.90;99.90;;;;;;5089156;28;20028;-67
2023/03/25 05:34:08;;;;;;;0.77;0.50;;;9.80;99.90;;;;;;5086002;28;20080;-67
2023/03/25 05:36:34;;;;;;;1.67;0.68;;;9.80;99.90;;;;;;5080279;28;20037;-67
2023/03/25 05:39:00;;;;;;;5.28;0.90;;;9.90;99.90;;;;;;5085092;28;20047;-67
2023/03/25 05:41:49;;;;;;;2.08;0.52;;;9.80;99.90;;;;;;5083952;28;20326;-67
2023/03/25 05:44:13;;;;;;;4.63;0.60;;;9.80;99.90;;;;;;5086345;28;20446;-67
2023/03/25 05:46:39;;;;;;;2.63;0.50;;;9.90;99.90;;;;;;5079295;28;20028;-67
2023/03/25 05:49:05;;;;;;;5.03;0.65;;;9.80;99.90;;;;;;5080122;28;20059;-67
2023/03/25 05:51:36;;;;;;;2.58;0.60;;;9.90;99.90;;;;;;5082766;28;20031;-67
2023/03/25 05:54:07;;;;;;;1.50;0.60;;;10.00;99.90;;;;;;5080896;28;21101;-67
2023/03/25 05:56:33;;;;;;;1.45;0.73;;;10.00;99.90;;;;;;5081054;28;20088;-67
2023/03/25 05:58:59;;;;;;;1.88;0.60;;;10.00;99.90;;;;;;5077482;28;20127;-67
2023/03/25 06:01:26;;;;;;;2.00;0.55;;;10.00;99.90;;;;;;5080268;28;20052;-67
2023/03/25 06:03:52;;;;;;;1.45;0.50;;;10.00;99.90;;;;;;5081456;28;20115;-67
2023/03/25 06:06:18;;;;;;;1.23;0.40;;;10.00;99.90;;;;;;5082271;28;20184;-67
2023/03/25 06:08:54;;;;;;;6.10;2.25;;;10.10;99.90;;;;;;5079885;28;20497;-67
2023/03/25 06:11:20;;;;;;;4.82;0.60;;;10.10;99.90;;;;;;5073213;28;20618;-67
2023/03/25 06:13:49;;;;;;;4.28;0.73;;;10.00;99.90;;;;;;5078409;28;20028;-66
2023/03/25 06:16:28;;;;;;;1.63;0.55;;;10.00;99.90;;;;;;5079684;28;20039;-67
2023/03/25 06:18:58;;;;;;;2.70;0.32;;;10.00;99.90;;;;;;5078166;28;20048;-67
2023/03/25 06:21:26;;;;;;;2.30;0.40;;;10.10;99.90;;;;;;5082801;28;20490;-67
2023/03/25 06:23:55;;;;;;;2.17;0.63;;;10.10;99.90;;;;;;5082695;28;20461;-67
2023/03/25 06:26:22;;;;;;;1.42;0.40;;;10.10;99.90;;;;;;5084262;28;20391;-67
2023/03/25 06:28:49;;;;;;;0.88;0.55;;;10.20;99.90;;;;;;5075684;28;20064;-67
2023/03/25 06:31:25;;;;;;;1.02;0.32;;;10.10;99.90;;;;;;5083636;28;20053;-67
2023/03/25 06:33:51;;;;;;;3.85;0.65;;;10.10;99.90;;;;;;5079712;28;20477;-67
2023/03/25 06:36:18;;;;;;;2.40;0.68;;;10.10;99.90;;;;;;5081636;28;20033;-67
2023/03/25 06:38:49;;;;;;;0.60;0.50;;;10.30;99.90;;;;;;5081253;28;20035;-67
2023/03/25 06:41:19;;;;;;;1.20;0.32;;;10.40;99.90;;;;;;5063514;28;20123;-67
2023/03/25 06:43:49;;;;;;;2.58;0.40;;;10.40;99.90;;;;;;5063565;28;20090;-67
2023/03/25 06:46:15;;;;;;;1.50;0.55;;;10.40;99.90;;;;;;5079923;28;20447;-67
2023/03/25 06:49:00;;;;;;;1.27;0.45;;;10.30;99.90;;;;;;5061598;28;20066;-67
2023/03/25 06:51:26;;;;;;;3.33;0.60;;;10.40;99.90;;;;;;5062104;28;20448;-67
2023/03/25 06:53:52;;;;;;;2.00;0.63;;;10.40;99.90;;;;;;5079755;28;20707;-67
2023/03/25 06:56:17;;;;;;;2.72;0.55;;;10.40;99.90;;;;;;5063683;28;20032;-67
2023/03/25 06:58:43;;;;;;;2.58;0.60;;;10.40;99.90;;;;;;5074183;28;20054;-67
2023/03/25 07:01:09;;;;;;;3.03;0.73;;;10.40;99.90;;;;;;5084115;28;20110;-67
2023/03/25 07:03:36;;;;;;;1.15;0.80;;;10.30;99.90;;;;;;5056718;28;20071;-67
2023/03/25 07:06:04;;;;;;;1.27;0.50;;;10.50;99.90;;;;;;5077825;28;20055;-67
2023/03/25 07:08:30;;;;;;;1.20;0.60;;;11.20;99.90;;;;;;5076293;28;20028;-67
2023/03/25 07:11:04;;;;;;;2.58;0.70;;;11.80;99.90;;;;;;5080463;28;20032;-67
2023/03/25 07:13:30;;;;;;;2.08;0.55;;;12.50;99.90;;;;;;5080534;28;20024;-67
2023/03/25 07:15:57;;;;;;;3.25;0.22;;;13.00;98.60;;;;;;5077604;28;20105;-67
2023/03/25 07:18:23;;;;;;;0.32;0.30;;;13.20;97.10;;;;;;5075703;28;20036;-67
2023/03/25 07:20:49;;;;;;;0.95;0.30;;;13.80;96.40;;;;;;5076195;28;20047;-67
2023/03/25 07:23:15;;;;;;;1.17;0.57;;;13.80;95.60;;;;;;5073407;28;20044;-67
2023/03/25 07:25:40;;;;;;;1.35;0.68;;;13.80;95.20;;;;;;5076816;28;20032;-67
2023/03/25 07:28:06;;;;;;;1.30;0.40;;;13.60;94.60;;;;;;5076145;28;20063;-67
2023/03/25 07:30:37;;;;;;;0.77;0.47;;;13.30;95.20;;;;;;5060928;28;20092;-67
2023/03/25 07:33:02;;;;;;;1.08;0.60;;;13.30;95.60;;;;;;5078795;28;20119;-67
2023/03/25 07:35:28;;;;;;;3.75;0.60;;;13.40;94.80;;;;;;5078146;28;20479;-67
2023/03/25 07:37:54;;;;;;;0.55;0.50;;;13.50;94.60;;;;;;5058443;28;20032;-67
2023/03/25 07:40:20;;;;;;;2.45;0.50;;;13.50;95.20;;;;;;5080385;28;20032;-67
2023/03/25 07:42:46;;;;;;;1.63;0.50;;;13.60;94.30;;;;;;5082228;28;20038;-67
2023/03/25 07:45:20;;;;;;;1.88;0.55;;;13.50;94.00;;;;;;5068906;28;20040;-67
2023/03/25 07:47:49;;;;;;;2.00;0.70;;;13.30;94.30;;;;;;5068537;28;20535;-67
2023/03/25 07:50:19;;;;;;;2.78;0.68;;;13.20;94.50;;;;;;5085056;28;20032;-67
2023/03/25 07:52:45;;;;;;;1.98;0.57;;;13.30;94.90;;;;;;5079785;28;20020;-67
2023/03/25 07:55:11;;;;;;;1.27;0.40;;;13.50;93.80;;;;;;5076957;28;20442;-67
2023/03/25 07:57:36;;;;;;;4.03;0.70;;;13.40;93.90;;;;;;5074858;28;20032;-67
2023/03/25 08:00:04;;;;;;;0.80;0.57;;;13.60;93.80;;;;;;5071002;28;20046;-65
2023/03/25 08:02:38;;;;;;;1.35;0.30;;;13.80;93.40;;;;;;5077243;28;20685;-67
2023/03/25 08:05:05;;;;;;;4.20;0.30;;;13.90;92.70;;;;;;5073557;28;20035;-67
2023/03/25 08:07:32;;;;;;;1.30;0.35;;;13.80;92.30;;;;;;5077477;28;20044;-67
2023/03/25 08:09:58;;;;;;;1.58;0.32;;;13.70;92.50;;;;;;5079437;28;20036;-67
2023/03/25 08:12:24;;;;;;;1.10;0.47;;;13.60;92.40;;;;;;5080790;28;20035;-67
2023/03/25 08:14:49;;;;;;;3.80;0.47;;;13.80;92.20;;;;;;5078760;28;20038;-67
2023/03/25 08:17:16;;;;;;;1.63;0.43;;;13.50;92.40;;;;;;5074796;28;20692;-67
2023/03/25 08:19:41;;;;;;;2.58;0.50;;;13.50;93.40;;;;;;5071184;28;20036;-67
2023/03/25 08:22:08;;;;;;;2.53;0.55;;;13.50;93.30;;;;;;5082033;28;20070;-68
2023/03/25 08:24:34;;;;;;;1.05;0.40;;;13.60;93.50;;;;;;5078511;28;20079;-67
2023/03/25 08:27:00;;;;;;;5.00;0.60;;;13.80;92.30;;;;;;5073137;28;20101;-67
2023/03/25 08:29:28;;;;;;;0.80;0.57;;;13.90;91.50;;;;;;5077676;28;20399;-67
2023/03/25 08:31:54;;;;;;;2.38;0.60;;;13.90;92.60;;;;;;5075398;28;20060;-67
2023/03/25 08:34:21;;;;;;;2.10;0.60;;;14.10;91.70;;;;;;5079424;28;20032;-67
2023/03/25 08:36:47;;;;;;;0.90;0.40;;;14.00;90.50;;;;;;5076718;28;20025;-65
2023/03/25 08:39:16;;;;;;;2.88;0.52;;;14.00;91.30;;;;;;5074883;28;20377;-69
2023/03/25 08:41:43;;;;;;;0.50;0.50;;;14.20;91.50;;;;;;5078326;28;20042;-67
2023/03/25 08:44:09;;;;;;;1.42;0.40;;;14.20;90.50;;;;;;5076180;28;20039;-67
2023/03/25 08:46:35;;;;;;;2.00;0.60;;;14.10;90.60;;;;;;5078288;28;20032;-67
2023/03/25 08:49:02;;;;;;;3.63;0.60;;;14.00;91.20;;;;;;5075690;28;20041;-67
2023/03/25 08:51:28;;;;;;;1.52;0.30;;;14.10;90.60;;;;;;5078716;28;20028;-67
2023/03/25 08:53:53;;;;;;;1.73;0.35;;;13.90;90.40;;;;;;5078250;28;20027;-67
2023/03/25 08:56:19;;;;;;;0.30;0.30;;;13.90;91.00;;;;;;5075570;28;20020;-67
2023/03/25 08:58:45;;;;;;;1.55;0.50;;;13.90;90.30;;;;;;5072409;28;20384;-67
2023/03/25 09:01:11;;;;;;;0.50;0.50;;;13.80;90.50;;;;;;5073717;28;20468;-67
2023/03/25 09:03:39;;;;;;;0.90;0.50;;;13.60;90.50;;;;;;5074269;28;20030;-67
2023/03/25 09:06:06;;;;;;;3.88;0.80;;;13.60;90.80;;;;;;5079067;28;20225;-67
2023/03/25 09:08:33;;;;;;;1.35;0.70;;;13.60;91.70;;;;;;5080234;28;20420;-67
2023/03/25 09:10:59;;;;;;;4.35;0.43;;;13.90;90.70;;;;;;5078464;28;20735;-67
2023/03/25 09:13:25;;;;;;;3.10;1.65;;;14.50;90.20;;;;;;5083103;28;20028;-67
2023/03/25 09:15:51;;;;;;;0.60;0.55;;;14.60;86.20;;;;;;5078193;28;20115;-67
2023/03/25 09:18:17;;;;;;;2.45;1.40;;;15.30;88.00;;;;;;5078651;28;20093;-67
2023/03/25 09:20:46;;;;;;;5.32;3.97;;;15.90;84.20;;;;;;5079252;28;20377;-64
2023/03/25 09:23:12;;;;;;;1.58;0.70;;;16.40;82.10;;;;;;5082929;28;20093;-67
2023/03/25 09:25:38;;;;;;;3.33;0.55;;;16.30;75.80;;;;;;5076427;28;20040;-67
2023/03/25 09:28:04;;;;;;;2.53;0.95;;;16.00;79.10;;;;;;5076185;28;20032;-67
2023/03/25 09:30:29;;;;;;;1.20;1.15;;;15.90;78.00;;;;;;5083210;28;20032;-67
2023/03/25 09:32:55;;;;;;;4.90;2.80;;;15.60;80.10;;;;;;5078490;28;20133;-67
2023/03/25 09:35:21;;;;;;;1.55;1.30;;;15.30;80.80;;;;;;5078019;28;20032;-67
2023/03/25 09:37:46;;;;;;;11.35;5.15;;;15.30;79.70;;;;;;5074971;28;20029;-67
2023/03/25 09:40:15;;;;;;;5.22;1.67;;;15.40;80.30;;;;;;5081962;28;20036;-67
2023/03/25 09:43:03;;;;;;;2.88;0.98;;;15.30;76.00;;;;;;5081494;28;20028;-67
2023/03/25 09:45:35;;;;;;;9.30;5.03;;;14.60;79.80;;;;;;5078875;28;20025;-67
2023/03/25 09:48:09;;;;;;;1.90;0.60;;;14.30;80.50;;;;;;5070464;28;20020;-67
2023/03/25 09:50:36;;;;;;;4.13;1.58;;;14.40;82.70;;;;;;5059857;28;20495;-67
2023/03/25 09:53:39;;;;;;;3.33;1.02;;;14.60;81.20;;;;;;5075221;28;20075;-66
2023/03/25 09:56:15;;;;;;;3.38;1.20;;;14.90;81.80;;;;;;5081434;28;20033;-66
2023/03/25 09:58:55;;;;;;;2.63;1.33;;;15.10;79.50;;;;;;5076670;28;20042;-67
2023/03/25 10:01:52;;;;;;;2.25;1.00;;;15.20;80.60;;;;;;5083311;28;20077;-67
2023/03/25 10:04:46;;;;;;;2.55;1.13;;;15.60;79.20;;;;;;5084198;28;20036;-67
2023/03/25 10:07:20;;;;;;;4.25;0.82;;;15.70;74.20;;;;;;5065602;28;20036;-67
2023/03/25 10:10:06;;;;;;;2.20;0.60;;;15.70;76.20;;;;;;5074503;28;20119;-66
2023/03/25 10:12:38;;;;;;;1.70;1.15;;;16.00;76.90;;;;;;5074356;28;20032;-68
2023/03/25 10:15:19;;;;;;;3.10;2.03;;;16.80;72.70;;;;;;5079874;28;20056;-68
2023/03/25 10:18:11;;;;;;;5.22;2.47;;;17.40;69.80;;;;;;5075340;28;20074;-68
2023/03/25 10:20:45;;;;;;;3.20;1.08;;;17.20;70.40;;;;;;5082688;28;20024;-68
2023/03/25 10:23:20;;;;;;;2.50;1.40;;;16.90;70.40;;;;;;5077516;28;20040;-67
2023/03/25 10:25:53;;;;;;;5.93;3.40;;;17.00;74.80;;;;;;5074646;28;20032;-68
2023/03/25 10:28:26;;;;;;;4.43;2.58;;;17.30;69.00;;;;;;5082445;28;20128;-67
2023/03/25 10:30:53;;;;;;;4.80;1.52;;;17.00;68.90;;;;;;5056922;28;20271;-68
2023/03/25 10:33:28;;;;;;;9.35;3.80;;;16.10;71.30;;;;;;5077621;28;20161;-67
2023/03/25 10:35:57;;;;;;;5.95;3.58;;;15.70;74.40;;;;;;5078273;28;20032;-67
2023/03/25 10:38:24;;;;;;;5.70;3.65;;;15.60;73.60;;;;;;5078109;28;20024;-67
2023/03/25 10:41:27;;;;;;;5.10;2.60;;;15.30;74.20;;;;;;5073354;28;20044;-68
2023/03/25 10:43:53;;;;;;;2.50;1.60;;;15.10;74.60;;;;;;5076418;28;20698;-67
2023/03/25 10:46:27;;;;;;;5.32;2.20;;;15.10;77.60;;;;;;5081755;28;20039;-68
2023/03/25 10:48:53;;;;;;;3.60;1.13;;;14.90;75.90;;;;;;5081733;28;20031;-67
2023/03/25 10:51:25;;;;;;;1.25;0.80;;;14.70;76.90;;;;;;5081292;28;20808;-67
2023/03/25 10:53:52;;;;;;;1.63;0.70;;;14.50;78.60;;;;;;5072388;28;20017;-67
2023/03/25 10:56:26;;;;;;;0.93;0.65;;;14.30;79.10;;;;;;5079696;28;20028;-67
2023/03/25 10:58:54;;;;;;;2.03;0.68;;;14.30;78.20;;;;;;5080069;28;20043;-66
2023/03/25 11:01:39;;;;;;;6.15;1.30;;;14.10;77.90;;;;;;5081410;28;20036;-68
2023/03/25 11:04:16;;;;;;;2.20;1.35;;;13.90;80.30;;;;;;5054390;28;20063;-67
2023/03/25 11:06:56;;;;;;;2.25;1.08;;;14.20;81.00;;;;;;5073867;28;20107;-67
2023/03/25 11:09:25;;;;;;;2.30;0.85;;;14.20;79.30;;;;;;5073880;28;20089;-67
2023/03/25 11:11:52;;;;;;;1.85;0.50;;;14.30;80.40;;;;;;5076570;28;20029;-67
2023/03/25 11:14:23;;;;;;;3.15;1.40;;;14.20;78.80;;;;;;5075554;28;20153;-67
2023/03/25 11:17:04;;;;;;;3.53;1.23;;;14.10;80.50;;;;;;5076132;28;20016;-66
2023/03/25 11:19:38;;;;;;;1.38;0.40;;;13.90;81.50;;;;;;5075280;28;20033;-66
2023/03/25 11:22:26;;;;;;;3.35;0.55;;;13.30;83.20;;;;;;5076062;28;20016;-66
2023/03/25 11:25:00;;;;;;;1.65;0.80;;;13.40;86.70;;;;;;5072242;28;20024;-66
2023/03/25 11:27:28;;;;;;;1.65;1.00;;;13.80;87.30;;;;;;5082125;28;20067;-66
2023/03/25 11:30:18;;;;;;;0.40;0.40;;;14.00;83.00;;;;;;5077759;28;20032;-67
2023/03/25 11:32:55;;;;;;;3.47;0.88;;;13.90;81.70;;;;;;5062813;28;20036;-66
2023/03/25 11:35:24;;;;;;;1.92;0.73;;;13.50;82.80;;;;;;5078156;28;20455;-67
2023/03/25 11:37:58;;;;;;;2.80;1.38;;;13.70;83.20;;;;;;5078282;28;20039;-66
2023/03/25 11:40:26;;;;;;;0.82;0.60;;;14.00;81.60;;;;;;5080388;28;20040;-67
2023/03/25 11:42:55;;;;;;;2.28;0.75;;;14.10;78.60;;;;;;5074334;28;20050;-66
2023/03/25 11:45:31;;;;;;;0.90;0.40;;;14.10;80.20;;;;;;5080027;28;20504;-66
2023/03/25 11:47:58;;;;;;;;;;;14.10;79.50;;;;;;5077594;28;20043;-65
2023/03/25 11:50:27;;;;;;;0.45;0.43;;;14.30;78.90;;;;;;5079449;28;20443;-66
2023/03/25 11:52:59;;;;;;;0.25;0.25;;;14.00;79.50;;;;;;5076752;28;20032;-66
2023/03/25 11:55:31;;;;;;;2.53;0.40;;;13.90;81.30;;;;;;5081772;28;20089;-66
2023/03/25 11:57:59;;;;;;;1.20;0.80;;;14.00;82.30;;;;;;5079788;28;20050;-66
2023/03/25 12:00:38;;;;;;;0.77;0.50;;;14.10;81.70;;;;;;5061759;28;20071;-66
2023/03/25 12:03:13;;;;;;;1.80;0.57;;;14.30;81.20;;;;;;5059146;28;20028;-66
2023/03/25 12:05:40;;;;;;;3.92;0.50;;;14.40;77.30;;;;;;5068158;28;20032;-66
2023/03/25 12:08:17;;;;;;;3.67;0.40;;;14.10;76.80;;;;;;5086297;28;20039;-66
2023/03/25 12:11:06;;;;;;;1.02;0.30;;;14.00;78.20;;;;;;5084728;28;20565;-66
2023/03/25 12:13:41;;;;;;;0.30;0.22;;;13.90;79.10;;;;;;5088739;28;20082;-66
2023/03/25 12:16:13;;;;;;;1.00;0.20;;;13.60;79.70;;;;;;5076922;28;20115;-66
2023/03/25 12:18:39;;;;;;;1.23;0.63;;;13.40;81.40;;;;;;5064654;28;20058;-67
2023/03/25 12:21:16;;;;;;;1.15;0.35;;;13.50;82.40;;;;;;5073875;28;20091;-68
2023/03/25 12:24:00;;;;;;;0.63;0.30;;;13.80;82.10;;;;;;5071010;28;20032;-67
2023/03/25 12:26:49;;;;;;;1.20;0.50;;;13.90;81.10;;;;;;5077081;28;20039;-66
2023/03/25 12:29:45;;;;;;;1.30;0.47;;;14.10;81.80;;;;;;5061987;28;20655;-66
2023/03/25 12:32:57;;;;;;;1.03;0.43;;;14.30;82.30;;;;;;5073109;28;20063;-66
2023/03/25 12:35:47;;;;;;;2.05;0.50;;;14.40;78.40;;;;;;4975713;28;20125;-67
2023/03/25 12:38:27;;;;;;;0.98;0.60;;;14.40;80.40;;;;;;5078783;28;20047;-66
2023/03/25 12:41:11;;;;;;;0.47;0.30;;;14.40;81.80;;;;;;5072552;28;20064;-67
2023/03/25 12:43:59;;;;;;;2.40;0.73;;;14.60;79.50;;;;;;5080275;28;20039;-67
2023/03/25 12:46:40;;;;;;;3.20;0.73;;;14.70;77.60;;;;;;5084441;28;20066;-65
2023/03/25 12:49:15;;;;;;;0.63;0.30;;;14.70;78.30;;;;;;5067192;28;20032;-66
2023/03/25 12:51:59;;;;;;;1.52;0.35;;;14.60;81.50;;;;;;5082256;28;20035;-67
2023/03/25 12:54:47;;;;;;;2.72;0.40;;;14.40;89.50;;;;;;5069633;28;20792;-66
2023/03/25 12:57:27;;;;;;;0.40;0.32;;;14.30;91.30;;;;;;5076708;28;20113;-67
2023/03/25 13:00:09;;;;;;;1.75;0.47;;;14.30;93.30;;;;;;5080654;28;20147;-67
2023/03/25 13:02:48;;;;;;;2.05;0.40;;;14.30;92.70;;;;;;5085867;28;20056;-66
2023/03/25 13:05:17;;;;;;;1.85;0.40;;;14.20;92.20;;;;;;5077080;28;20115;-66
2023/03/25 13:07:47;;;;;;;0.50;0.50;;;14.00;92.20;;;;;;5079893;28;20536;-66
2023/03/25 13:10:18;;;;;;;1.10;0.50;;;13.50;93.10;;;;;;5080843;28;20478;-67
2023/03/25 13:12:49;;;;;;;1.20;0.85;;;13.30;94.50;;;;;;5079136;28;20043;-67